Time;durP1;ratioP1;P1;durP2;ratioP2;P2;SDS_P1;SDS_P2;PMS_P1;PMS_P2;Temp;Humidity;BMP_temperature;BMP_pressure;BME280_temperature;BME280_humidity;BME280_pressure;Samples;Min_cycle;Max_cycle;Signal;HPM_P1;HPM_P2
2023/11/09 00:00:41;;;;;;;;;;;23.70;99.90;;;;;;5014643;28;20036;-48
2023/11/09 00:03:07;;;;;;;5.82;2.95;;;23.60;99.90;;;;;;5013912;28;20421;-48
2023/11/09 00:05:33;;;;;;;5.55;3.25;;;23.60;99.90;;;;;;5015656;28;20030;-49
2023/11/09 00:07:59;;;;;;;4.20;2.70;;;23.60;99.90;;;;;;5015207;28;20072;-49
2023/11/09 00:10:25;;;;;;;6.78;3.08;;;23.60;99.90;;;;;;5015168;28;20068;-49
2023/11/09 00:12:53;;;;;;;6.30;2.95;;;23.60;99.90;;;;;;5013806;28;20711;-49
2023/11/09 00:15:22;;;;;;;5.72;2.95;;;23.60;99.90;;;;;;5017145;28;20026;-49
2023/11/09 00:17:48;;;;;;;4.97;3.33;;;23.60;99.90;;;;;;5014909;28;20042;-49
2023/11/09 00:20:20;;;;;;;6.25;3.40;;;23.60;99.90;;;;;;5014173;28;20105;-49
2023/11/09 00:22:46;;;;;;;5.53;2.80;;;23.60;99.90;;;;;;5014845;28;20030;-49
2023/11/09 00:25:13;;;;;;;6.70;3.33;;;23.60;99.90;;;;;;5016428;28;20026;-49
2023/11/09 00:27:39;;;;;;;4.82;2.88;;;23.50;99.90;;;;;;5013862;28;20084;-49
2023/11/09 00:30:06;;;;;;;5.60;3.17;;;23.50;99.90;;;;;;5013383;28;20026;-49
2023/11/09 00:32:33;;;;;;;6.43;3.33;;;23.50;99.90;;;;;;5015588;28;20033;-49
2023/11/09 00:34:59;;;;;;;6.03;2.80;;;23.50;99.90;;;;;;5014988;28;20277;-49
2023/11/09 00:37:28;;;;;;;5.05;3.33;;;23.50;99.90;;;;;;5013660;28;20029;-49
2023/11/09 00:39:57;;;;;;;3.83;2.95;;;23.50;99.90;;;;;;5014876;28;20053;-49
2023/11/09 00:42:22;;;;;;;5.93;3.92;;;23.50;99.90;;;;;;5015958;28;20416;-49
2023/11/09 00:44:48;;;;;;;3.83;3.03;;;23.50;99.90;;;;;;5014681;28;20018;-49
2023/11/09 00:47:15;;;;;;;6.35;3.17;;;23.50;99.90;;;;;;5013162;28;20026;-49
2023/11/09 00:49:41;;;;;;;6.05;3.42;;;23.40;99.90;;;;;;5014438;28;20470;-48
2023/11/09 00:52:07;;;;;;;5.20;2.90;;;23.40;99.90;;;;;;5016083;28;20056;-49
2023/11/09 00:54:33;;;;;;;5.15;3.10;;;23.40;99.90;;;;;;5014311;28;20486;-49
2023/11/09 00:56:58;;;;;;;3.88;2.88;;;23.40;99.90;;;;;;5012871;28;20121;-49
2023/11/09 00:59:24;;;;;;;5.47;3.30;;;23.40;99.90;;;;;;5015339;28;20022;-49
2023/11/09 01:01:50;;;;;;;4.35;3.42;;;23.40;99.90;;;;;;5040574;22;20053;-56
2023/11/09 01:04:17;;;;;;;7.40;3.53;;;23.40;99.90;;;;;;5033705;28;20049;-56
2023/11/09 01:06:43;;;;;;;3.83;2.75;;;23.40;99.90;;;;;;5031678;28;20033;-57
2023/11/09 01:09:09;;;;;;;5.93;3.67;;;23.40;99.90;;;;;;5025045;28;20540;-57
2023/11/09 01:11:35;;;;;;;5.32;3.05;;;23.40;99.90;;;;;;5028991;28;20026;-56
2023/11/09 01:14:00;;;;;;;4.75;3.17;;;23.40;99.90;;;;;;5028807;28;20030;-57
2023/11/09 01:16:26;;;;;;;4.75;3.30;;;23.30;99.90;;;;;;5013909;28;20104;-57
2023/11/09 01:18:52;;;;;;;6.75;3.40;;;23.40;99.90;;;;;;5015457;28;20155;-56
2023/11/09 01:21:17;;;;;;;4.88;3.20;;;23.40;99.90;;;;;;5013628;28;20033;-56
2023/11/09 01:23:44;;;;;;;4.97;3.20;;;23.30;99.90;;;;;;5028021;28;20057;-56
2023/11/09 01:26:10;;;;;;;5.82;3.55;;;23.30;99.90;;;;;;5013655;28;20040;-56
2023/11/09 01:28:36;;;;;;;6.15;3.42;;;23.30;99.90;;;;;;5014730;28;20017;-56
2023/11/09 01:31:03;;;;;;;4.88;3.20;;;23.30;99.90;;;;;;5013522;28;20029;-56
2023/11/09 01:33:28;;;;;;;5.77;3.43;;;23.30;99.90;;;;;;5012165;28;20022;-56
2023/11/09 01:35:55;;;;;;;5.75;3.30;;;23.30;99.90;;;;;;5013887;28;20631;-57
2023/11/09 01:38:20;;;;;;;5.30;2.97;;;23.30;99.90;;;;;;5014305;28;20490;-56
2023/11/09 01:40:55;;;;;;;7.43;3.50;;;23.30;99.90;;;;;;5012475;28;20026;-56
2023/11/09 01:43:22;;;;;;;5.80;3.25;;;23.30;99.90;;;;;;5012155;28;20029;-56
2023/11/09 01:45:51;;;;;;;4.40;3.25;;;23.30;99.90;;;;;;5014235;28;20100;-56
2023/11/09 01:48:19;;;;;;;3.95;3.00;;;23.20;99.90;;;;;;5012967;28;20078;-57
2023/11/09 01:50:46;;;;;;;5.47;3.42;;;23.20;99.90;;;;;;5028014;28;20607;-56
2023/11/09 01:53:12;;;;;;;5.03;3.17;;;23.20;99.90;;;;;;5013634;28;20424;-56
2023/11/09 01:55:39;;;;;;;5.22;3.38;;;23.20;99.90;;;;;;5012916;28;20029;-56
2023/11/09 01:58:07;;;;;;;5.95;3.80;;;23.20;99.90;;;;;;5012897;28;20038;-56
2023/11/09 02:00:33;;;;;;;4.80;3.40;;;23.20;99.90;;;;;;5024820;23;20049;-48
2023/11/09 02:03:00;;;;;;;4.30;3.33;;;23.20;99.90;;;;;;5024257;28;20033;-49
2023/11/09 02:05:26;;;;;;;4.70;3.22;;;23.20;99.90;;;;;;5012809;28;20471;-49
2023/11/09 02:07:55;;;;;;;5.30;3.10;;;23.20;99.90;;;;;;5012677;28;20022;-49
2023/11/09 02:10:22;;;;;;;4.85;3.30;;;23.20;99.90;;;;;;5013586;28;20036;-49
2023/11/09 02:12:49;;;;;;;5.23;3.00;;;23.20;99.90;;;;;;5014278;28;20018;-49
2023/11/09 02:15:14;;;;;;;4.68;3.00;;;23.10;99.90;;;;;;5027978;28;20271;-49
2023/11/09 02:17:41;;;;;;;5.55;3.25;;;23.20;99.90;;;;;;5027042;28;20041;-50
2023/11/09 02:20:08;;;;;;;5.13;3.47;;;23.10;99.90;;;;;;5010874;28;20092;-49
2023/11/09 02:22:36;;;;;;;4.65;3.38;;;23.10;99.90;;;;;;5012827;28;20033;-50
2023/11/09 02:25:03;;;;;;;5.13;3.75;;;23.10;99.90;;;;;;5012598;28;20050;-50
2023/11/09 02:27:29;;;;;;;5.67;3.13;;;23.10;99.90;;;;;;5011375;28;20050;-49
2023/11/09 02:29:55;;;;;;;5.32;3.17;;;23.10;99.90;;;;;;5014181;28;20720;-49
2023/11/09 02:32:20;;;;;;;4.40;3.55;;;23.10;99.90;;;;;;5012886;28;20378;-49
2023/11/09 02:34:48;;;;;;;4.70;3.40;;;23.10;99.90;;;;;;5012539;28;20052;-49
2023/11/09 02:37:14;;;;;;;5.22;3.72;;;23.10;99.90;;;;;;5011610;28;20492;-49
2023/11/09 02:39:40;;;;;;;4.00;2.67;;;23.10;99.90;;;;;;5014336;28;20091;-49
2023/11/09 02:42:06;;;;;;;5.15;3.30;;;23.00;99.90;;;;;;5012099;28;20451;-50
2023/11/09 02:44:33;;;;;;;6.47;3.45;;;23.10;99.90;;;;;;5012268;28;20043;-49
2023/11/09 02:46:59;;;;;;;4.23;2.97;;;23.00;99.90;;;;;;5013215;28;20030;-49
2023/11/09 02:49:25;;;;;;;5.22;3.28;;;23.00;99.90;;;;;;5029304;28;20433;-50
2023/11/09 02:51:51;;;;;;;4.85;3.47;;;23.00;99.90;;;;;;5012153;28;20518;-49
2023/11/09 02:54:18;;;;;;;5.15;3.42;;;23.00;99.90;;;;;;5010924;28;20026;-49
2023/11/09 02:56:44;;;;;;;3.72;2.63;;;23.00;99.90;;;;;;5012237;28;20017;-50
2023/11/09 02:59:10;;;;;;;3.88;2.83;;;23.00;99.90;;;;;;5012674;28;20034;-48
2023/11/09 03:01:36;;;;;;;4.57;3.30;;;23.00;99.90;;;;;;5012598;28;20045;-49
2023/11/09 03:04:02;;;;;;;3.65;2.70;;;23.00;99.90;;;;;;5010958;28;20041;-50
2023/11/09 03:06:28;;;;;;;4.50;3.33;;;23.00;99.90;;;;;;5012946;28;20022;-50
2023/11/09 03:08:54;;;;;;;3.63;2.75;;;23.00;99.90;;;;;;5012095;28;20590;-50
2023/11/09 03:11:20;;;;;;;3.75;3.30;;;23.00;99.90;;;;;;5010675;28;20471;-50
2023/11/09 03:13:46;;;;;;;4.00;2.92;;;22.90;99.90;;;;;;5012577;28;20378;-50
2023/11/09 03:16:15;;;;;;;4.22;3.00;;;22.90;99.90;;;;;;5013143;28;20033;-50
2023/11/09 03:18:41;;;;;;;4.03;2.80;;;22.90;99.90;;;;;;5011736;28;20080;-50
2023/11/09 03:21:10;;;;;;;5.07;3.28;;;22.90;99.90;;;;;;5010872;28;20450;-50
2023/11/09 03:23:36;;;;;;;4.30;3.13;;;22.90;99.90;;;;;;5012458;28;20035;-50
2023/11/09 03:26:02;;;;;;;5.72;3.05;;;22.90;99.90;;;;;;5012417;28;20378;-50
2023/11/09 03:28:28;;;;;;;6.68;3.50;;;22.90;99.90;;;;;;5010637;28;20029;-50
2023/11/09 03:30:55;;;;;;;4.05;2.70;;;22.90;99.90;;;;;;5010063;28;20022;-49
2023/11/09 03:33:21;;;;;;;4.03;2.88;;;22.90;99.90;;;;;;5012570;28;20108;-49
2023/11/09 03:35:47;;;;;;;4.18;2.70;;;22.90;99.90;;;;;;5011442;28;20478;-49
2023/11/09 03:38:13;;;;;;;5.18;2.92;;;22.90;99.90;;;;;;5011254;28;20077;-49
2023/11/09 03:40:39;;;;;;;4.15;3.00;;;22.90;99.90;;;;;;5009203;28;20054;-50
2023/11/09 03:43:05;;;;;;;4.25;2.50;;;22.90;99.90;;;;;;5013713;28;20065;-50
2023/11/09 03:45:31;;;;;;;4.22;2.72;;;22.90;99.90;;;;;;5010271;28;20018;-49
2023/11/09 03:47:57;;;;;;;5.13;3.00;;;22.90;99.90;;;;;;5011216;28;20112;-49
2023/11/09 03:50:23;;;;;;;3.70;2.92;;;22.90;99.90;;;;;;5010947;28;20121;-49
2023/11/09 03:52:50;;;;;;;3.45;2.72;;;22.90;99.90;;;;;;5013006;28;20033;-49
2023/11/09 03:55:16;;;;;;;3.75;2.58;;;22.90;99.90;;;;;;5010219;28;20101;-49
2023/11/09 03:57:43;;;;;;;4.30;2.63;;;22.80;99.90;;;;;;5010035;28;20377;-50
2023/11/09 04:00:11;;;;;;;3.55;2.75;;;22.80;99.90;;;;;;5011857;28;20468;-50
2023/11/09 04:02:42;;;;;;;3.53;2.65;;;22.80;99.90;;;;;;5011105;28;20050;-50
2023/11/09 04:05:13;;;;;;;2.88;2.45;;;22.80;99.90;;;;;;5011364;28;20092;-50
2023/11/09 04:07:41;;;;;;;3.78;2.50;;;22.80;99.90;;;;;;5011021;28;20022;-49
2023/11/09 04:10:09;;;;;;;4.25;2.33;;;22.80;99.90;;;;;;5011871;28;20022;-49
2023/11/09 04:12:36;;;;;;;3.88;2.67;;;22.80;99.90;;;;;;5010313;28;20686;-50
2023/11/09 04:15:05;;;;;;;4.00;2.92;;;22.80;99.90;;;;;;5009954;28;20033;-50
2023/11/09 04:17:32;;;;;;;4.25;3.20;;;22.80;99.90;;;;;;5010417;28;20041;-49
2023/11/09 04:19:59;;;;;;;4.28;2.90;;;22.80;99.90;;;;;;5016574;28;20127;-49
2023/11/09 04:22:25;;;;;;;3.20;2.47;;;22.80;99.90;;;;;;5010977;28;20029;-49
2023/11/09 04:24:51;;;;;;;4.30;2.45;;;22.80;99.90;;;;;;5009853;28;20489;-50
2023/11/09 04:27:17;;;;;;;3.47;2.92;;;22.80;99.90;;;;;;5011544;28;20383;-49
2023/11/09 04:29:43;;;;;;;3.80;2.50;;;22.80;99.90;;;;;;5010990;28;20022;-49
2023/11/09 04:32:09;;;;;;;3.45;2.20;;;22.80;99.90;;;;;;5010117;28;20018;-49
2023/11/09 04:34:36;;;;;;;4.50;2.42;;;22.80;99.90;;;;;;5010313;28;20022;-49
2023/11/09 04:37:03;;;;;;;3.95;2.53;;;22.80;99.90;;;;;;5012962;28;20057;-50
2023/11/09 04:39:31;;;;;;;4.80;2.60;;;22.80;99.90;;;;;;5011217;28;20094;-50
2023/11/09 04:41:58;;;;;;;3.65;2.17;;;22.80;99.90;;;;;;5011074;28;20018;-50
2023/11/09 04:44:26;;;;;;;3.70;2.72;;;22.80;99.90;;;;;;5015388;28;20100;-50
2023/11/09 04:46:53;;;;;;;4.72;2.55;;;22.70;99.90;;;;;;5015606;28;20072;-50
2023/11/09 04:49:22;;;;;;;3.53;2.47;;;22.80;99.90;;;;;;5014313;28;20016;-50
2023/11/09 04:51:50;;;;;;;2.75;2.13;;;22.70;99.90;;;;;;5013669;28;21072;-50
2023/11/09 04:54:24;;;;;;;5.25;2.70;;;22.70;99.90;;;;;;5015388;28;20014;-50
2023/11/09 04:57:03;;;;;;;2.55;1.98;;;22.70;99.90;;;;;;5014204;28;20470;-49
2023/11/09 05:07:29;;;;;;;3.08;2.50;;;22.70;99.90;;;;;;5015216;28;20558;-49
2023/11/09 05:09:56;;;;;;;5.57;2.78;;;22.70;99.90;;;;;;5014851;28;20026;-49
2023/11/09 05:12:22;;;;;;;3.58;2.30;;;22.70;99.90;;;;;;5014774;28;20455;-49
2023/11/09 05:14:49;;;;;;;2.92;2.17;;;22.70;99.90;;;;;;5014706;28;20022;-49
2023/11/09 05:17:15;;;;;;;3.20;2.22;;;22.70;99.90;;;;;;5014594;28;20034;-48
2023/11/09 05:19:42;;;;;;;3.13;2.05;;;22.70;99.90;;;;;;5014578;28;20018;-49
2023/11/09 05:22:08;;;;;;;2.38;2.00;;;22.70;99.90;;;;;;5013478;28;20489;-49
2023/11/09 05:24:38;;;;;;;2.30;1.73;;;22.70;99.90;;;;;;5014536;28;20022;-49
2023/11/09 05:27:05;;;;;;;2.85;1.88;;;22.70;99.90;;;;;;5014755;28;20494;-49
2023/11/09 05:29:31;;;;;;;3.10;2.10;;;22.70;99.90;;;;;;5014674;28;20457;-48
2023/11/09 05:31:57;;;;;;;2.53;1.90;;;22.70;99.90;;;;;;5014380;28;20029;-49
2023/11/09 05:34:22;;;;;;;3.47;2.20;;;22.70;99.90;;;;;;5014323;28;20026;-48
2023/11/09 05:36:49;;;;;;;2.70;2.13;;;22.60;99.90;;;;;;5014158;28;20030;-50
2023/11/09 05:39:15;;;;;;;3.33;2.38;;;22.60;99.90;;;;;;5014320;28;20022;-49
2023/11/09 05:41:43;;;;;;;2.63;1.88;;;22.70;99.90;;;;;;5014357;28;20549;-49
2023/11/09 05:44:09;;;;;;;2.92;2.15;;;22.60;99.90;;;;;;5014374;28;20359;-50
2023/11/09 05:46:36;;;;;;;3.75;2.25;;;22.60;99.90;;;;;;5014352;28;20105;-48
2023/11/09 05:49:03;;;;;;;2.97;1.98;;;22.60;99.90;;;;;;5014293;28;20390;-48
2023/11/09 05:51:31;;;;;;;2.67;1.87;;;22.60;99.90;;;;;;5013962;28;20030;-48
2023/11/09 05:53:57;;;;;;;;;;;22.60;99.90;;;;;;5014036;28;20029;-49
2023/11/09 05:56:23;;;;;;;3.00;1.88;;;22.60;99.90;;;;;;5013806;28;20263;-49
2023/11/09 05:58:50;;;;;;;2.70;1.90;;;22.60;99.90;;;;;;5013757;28;20053;-48
2023/11/09 06:01:17;;;;;;;3.10;1.70;;;22.60;99.90;;;;;;5013630;28;20046;-48
2023/11/09 06:03:42;;;;;;;2.45;1.90;;;22.60;99.90;;;;;;5013862;28;20101;-49
2023/11/09 06:06:08;;;;;;;2.70;1.95;;;22.60;99.90;;;;;;5013679;28;20113;-49
2023/11/09 06:08:37;;;;;;;4.07;1.90;;;22.60;99.90;;;;;;5013868;28;20476;-49
2023/11/09 06:11:04;;;;;;;5.00;1.83;;;22.60;99.90;;;;;;5013954;28;20029;-49
2023/11/09 06:13:31;;;;;;;6.65;1.92;;;22.60;99.90;;;;;;5013669;28;20071;-49
2023/11/09 06:16:00;;;;;;;2.58;1.90;;;22.60;99.90;;;;;;5013599;28;20030;-49
2023/11/09 06:18:26;;;;;;;2.05;1.75;;;22.60;99.90;;;;;;5013465;28;20026;-51
2023/11/09 06:20:53;;;;;;;4.97;2.25;;;22.50;99.90;;;;;;5013398;28;20029;-49
2023/11/09 06:23:19;;;;;;;2.42;1.77;;;22.60;99.90;;;;;;5013534;28;20037;-49
2023/11/09 06:25:45;;;;;;;5.70;2.90;;;22.60;99.90;;;;;;5013513;28;20018;-49
2023/11/09 06:28:12;;;;;;;3.00;2.35;;;22.60;99.90;;;;;;5011967;28;20034;-49
2023/11/09 06:30:38;;;;;;;3.10;1.90;;;22.60;99.90;;;;;;5013331;28;20030;-49
2023/11/09 06:33:05;;;;;;;4.10;2.40;;;22.60;99.90;;;;;;5013299;28;20314;-49
2023/11/09 06:35:32;;;;;;;5.05;2.17;;;22.60;99.90;;;;;;5013165;28;20044;-49
2023/11/09 06:37:57;;;;;;;2.75;2.33;;;22.60;99.90;;;;;;5013231;28;20037;-49
2023/11/09 06:40:25;;;;;;;3.10;2.22;;;22.50;99.90;;;;;;5013145;28;20026;-49
2023/11/09 06:42:50;;;;;;;3.60;1.90;;;22.60;99.90;;;;;;5013098;28;20026;-49
2023/11/09 06:45:16;;;;;;;2.58;1.75;;;22.50;99.90;;;;;;5012972;28;20073;-49
2023/11/09 06:47:45;;;;;;;2.88;1.67;;;22.50;99.90;;;;;;5011650;28;20062;-50
2023/11/09 06:50:12;;;;;;;3.45;2.00;;;22.50;99.90;;;;;;5012070;28;20375;-50
2023/11/09 06:52:41;;;;;;;2.90;2.25;;;22.50;99.90;;;;;;5013097;28;20014;-49
2023/11/09 06:55:11;;;;;;;1.90;1.70;;;22.50;99.90;;;;;;5012996;28;20037;-53
2023/11/09 06:57:39;;;;;;;3.95;2.20;;;22.50;99.90;;;;;;5011591;28;20437;-49
2023/11/09 07:00:07;;;;;;;3.53;2.08;;;22.50;99.90;;;;;;5013031;28;20029;-49
2023/11/09 07:02:33;;;;;;;3.65;2.28;;;22.50;99.90;;;;;;5012378;28;20085;-50
2023/11/09 07:05:00;;;;;;;3.00;2.00;;;22.50;99.90;;;;;;5011872;28;20033;-51
2023/11/09 07:07:27;;;;;;;2.67;1.90;;;22.50;99.90;;;;;;5012694;28;20065;-49
2023/11/09 07:09:53;;;;;;;2.47;1.70;;;22.50;99.90;;;;;;5012704;28;20166;-48
2023/11/09 07:12:19;;;;;;;3.22;1.77;;;22.50;99.90;;;;;;5012526;28;20482;-48
2023/11/09 07:14:45;;;;;;;3.65;1.92;;;22.50;99.90;;;;;;5012580;28;20025;-48
2023/11/09 07:17:12;;;;;;;3.45;2.20;;;22.50;99.90;;;;;;5011381;28;20525;-49
2023/11/09 07:19:38;;;;;;;4.70;2.13;;;22.50;99.90;;;;;;5012870;28;20029;-49
2023/11/09 07:22:07;;;;;;;3.58;2.10;;;22.50;99.90;;;;;;5012339;28;20025;-49
2023/11/09 07:24:37;;;;;;;4.28;2.00;;;22.50;99.90;;;;;;5012458;28;20022;-49
2023/11/09 07:27:12;;;;;;;3.55;2.00;;;22.50;99.90;;;;;;5012438;28;20018;-49
2023/11/09 07:29:39;;;;;;;3.60;2.33;;;22.50;99.90;;;;;;5027785;28;20037;-49
2023/11/09 07:32:05;;;;;;;6.18;2.80;;;22.50;99.90;;;;;;5012375;28;20413;-49
2023/11/09 07:34:31;;;;;;;2.90;1.63;;;22.50;99.90;;;;;;5012476;28;20251;-49
2023/11/09 07:36:58;;;;;;;3.60;2.00;;;22.50;99.90;;;;;;5012346;28;20088;-49
2023/11/09 07:39:27;;;;;;;3.45;1.98;;;22.50;99.90;;;;;;5012444;28;20037;-50
2023/11/09 07:42:04;;;;;;;2.85;1.88;;;22.50;99.90;;;;;;5012290;28;20045;-51
2023/11/09 07:44:30;;;;;;;5.57;2.33;;;22.50;99.90;;;;;;5012375;28;20030;-50
2023/11/09 07:46:57;;;;;;;5.10;2.50;;;22.50;99.90;;;;;;5012491;28;20028;-49
2023/11/09 07:49:24;;;;;;;4.22;1.90;;;22.50;99.90;;;;;;5012602;28;20030;-49
2023/11/09 07:51:52;;;;;;;3.05;2.10;;;22.50;99.90;;;;;;5011023;28;20026;-50
2023/11/09 07:54:22;;;;;;;2.70;1.80;;;22.50;99.90;;;;;;5010929;28;20029;-49
2023/11/09 07:56:48;;;;;;;3.95;2.17;;;22.50;99.90;;;;;;5012192;28;20068;-50
2023/11/09 07:59:14;;;;;;;4.25;2.30;;;22.50;99.90;;;;;;5012199;28;20049;-50
2023/11/09 08:01:40;;;;;;;4.18;2.17;;;22.60;99.90;;;;;;5012210;28;20054;-49
2023/11/09 08:04:08;;;;;;;4.78;2.50;;;22.50;99.90;;;;;;5012139;28;20049;-49
2023/11/09 08:06:33;;;;;;;;;;;22.60;99.90;;;;;;5012439;28;20033;-50
2023/11/09 08:08:59;;;;;;;2.58;1.95;;;22.60;99.90;;;;;;5011881;28;20281;-49
2023/11/09 08:11:26;;;;;;;2.90;1.65;;;22.60;99.90;;;;;;5012185;28;20494;-49
2023/11/09 08:13:52;;;;;;;4.22;1.77;;;22.70;99.90;;;;;;5012094;28;20104;-49
2023/11/09 08:16:18;;;;;;;3.40;2.10;;;22.60;99.90;;;;;;5013075;28;20164;-49
2023/11/09 08:18:44;;;;;;;3.33;2.25;;;22.70;99.90;;;;;;5015898;28;20026;-49
2023/11/09 08:21:10;;;;;;;3.75;2.25;;;22.70;99.90;;;;;;5014734;28;20037;-49
2023/11/09 08:23:36;;;;;;;3.03;2.17;;;22.80;99.90;;;;;;5015557;28;20049;-50
2023/11/09 08:26:04;;;;;;;2.97;2.45;;;22.80;99.90;;;;;;5015749;28;20104;-49
2023/11/09 08:28:30;;;;;;;5.25;2.50;;;22.80;99.90;;;;;;5015591;28;20114;-50
2023/11/09 08:30:58;;;;;;;4.63;2.05;;;22.90;99.90;;;;;;5015354;28;20030;-49
2023/11/09 08:33:24;;;;;;;3.45;2.10;;;22.90;99.90;;;;;;5015407;28;20141;-50
2023/11/09 08:35:52;;;;;;;3.00;1.80;;;22.90;99.90;;;;;;5015182;28;20034;-51
2023/11/09 08:38:18;;;;;;;2.83;1.90;;;22.90;99.90;;;;;;5015033;28;20390;-50
2023/11/09 08:40:51;;;;;;;4.63;2.00;;;23.00;99.90;;;;;;5015553;28;20018;-50
2023/11/09 08:43:17;;;;;;;7.82;2.10;;;23.00;99.90;;;;;;5015381;28;20029;-49
2023/11/09 08:45:43;;;;;;;3.65;2.05;;;23.00;99.90;;;;;;5015619;28;20026;-49
2023/11/09 08:48:10;;;;;;;3.70;1.83;;;23.00;99.90;;;;;;5015034;28;20025;-50
2023/11/09 08:50:37;;;;;;;2.93;1.97;;;23.10;99.90;;;;;;5015003;28;20022;-50
2023/11/09 08:53:03;;;;;;;3.65;1.92;;;23.10;99.90;;;;;;5014950;28;20018;-50
2023/11/09 08:55:30;;;;;;;2.93;2.13;;;23.10;99.90;;;;;;5015042;28;20033;-50
2023/11/09 08:57:58;;;;;;;3.70;2.17;;;23.10;99.90;;;;;;5030109;28;20486;-49
2023/11/09 09:00:28;;;;;;;3.00;2.00;;;23.20;99.90;;;;;;5014903;28;20033;-49
2023/11/09 09:02:54;;;;;;;2.70;2.15;;;23.20;99.90;;;;;;5014856;28;20121;-50
2023/11/09 09:05:27;;;;;;;2.78;2.00;;;23.20;99.90;;;;;;5014838;28;20472;-50
2023/11/09 09:07:56;;;;;;;3.13;1.75;;;23.30;99.90;;;;;;5014738;28;20108;-49
2023/11/09 09:10:22;;;;;;;2.72;2.28;;;23.30;99.90;;;;;;5014705;28;20018;-49
2023/11/09 09:12:51;;;;;;;3.22;1.88;;;23.30;99.90;;;;;;5014534;28;20049;-49
2023/11/09 09:15:19;;;;;;;5.30;2.35;;;23.40;99.90;;;;;;5014589;28;20029;-50
2023/11/09 09:17:48;;;;;;;;;;;23.40;99.90;;;;;;5015169;28;20466;-50
2023/11/09 09:20:19;;;;;;;4.10;2.50;;;23.40;99.90;;;;;;5014620;28;19929;-49
2023/11/09 09:22:47;;;;;;;3.72;2.65;;;23.40;99.90;;;;;;5014830;28;20036;-50
2023/11/09 09:25:14;;;;;;;4.25;2.25;;;23.40;99.90;;;;;;5014755;28;20091;-50
2023/11/09 09:27:46;;;;;;;3.72;1.90;;;23.50;99.90;;;;;;5013787;28;20021;-50
2023/11/09 09:30:13;;;;;;;4.60;2.35;;;23.50;99.90;;;;;;5014313;28;20025;-49
2023/11/09 09:32:40;;;;;;;;;;;23.60;99.90;;;;;;5014733;28;20045;-49
2023/11/09 09:35:06;;;;;;;4.13;2.05;;;23.60;99.90;;;;;;5014339;28;19948;-50
2023/11/09 09:37:32;;;;;;;4.00;2.15;;;23.60;99.90;;;;;;5014088;28;20048;-50
2023/11/09 09:39:58;;;;;;;3.17;2.50;;;23.70;99.90;;;;;;5012991;28;20101;-49
2023/11/09 09:42:26;;;;;;;5.07;2.40;;;23.70;99.90;;;;;;5014018;28;20471;-49
2023/11/09 09:44:56;;;;;;;;;;;23.70;99.90;;;;;;5014436;28;20048;-50
2023/11/09 09:47:24;;;;;;;1.92;1.77;;;23.80;99.90;;;;;;5029128;28;19905;-49
2023/11/09 09:49:53;;;;;;;4.25;2.22;;;23.80;99.90;;;;;;5012848;28;20052;-50
2023/11/09 09:52:21;;;;;;;2.92;2.05;;;23.90;99.90;;;;;;5014044;28;20022;-49
2023/11/09 09:54:48;;;;;;;3.47;2.33;;;23.90;99.90;;;;;;5014058;28;20026;-50
2023/11/09 09:57:15;;;;;;;2.72;1.90;;;23.90;99.90;;;;;;5013968;28;20508;-49
2023/11/09 09:59:44;;;;;;;3.53;2.10;;;24.00;99.90;;;;;;5013814;28;20033;-49
2023/11/09 10:02:13;;;;;;;3.53;2.10;;;24.00;99.90;;;;;;5013440;28;20151;-49
2023/11/09 10:04:39;;;;;;;4.10;2.10;;;24.10;99.90;;;;;;5028902;28;20022;-49
2023/11/09 10:07:05;;;;;;;5.68;2.40;;;24.10;99.90;;;;;;5013783;28;20101;-50
2023/11/09 10:09:31;;;;;;;3.42;2.13;;;24.20;99.90;;;;;;5013736;28;20025;-50
2023/11/09 10:11:58;;;;;;;3.22;2.22;;;24.20;99.90;;;;;;5013339;28;20082;-50
2023/11/09 10:14:25;;;;;;;4.38;2.33;;;24.30;99.90;;;;;;5028695;28;20034;-50
2023/11/09 10:16:51;;;;;;;;;;;24.30;99.90;;;;;;5028991;28;20034;-49
2023/11/09 10:19:17;;;;;;;3.15;2.25;;;24.40;99.90;;;;;;5013521;28;19979;-49
2023/11/09 10:21:46;;;;;;;3.83;2.60;;;24.40;99.90;;;;;;5013291;28;20030;-49
2023/11/09 10:24:14;;;;;;;5.28;2.33;;;24.50;99.90;;;;;;5013336;28;20022;-51
2023/11/09 10:26:41;;;;;;;3.08;2.45;;;24.50;99.90;;;;;;5013115;28;20021;-50
2023/11/09 10:29:14;;;;;;;2.90;2.17;;;24.60;99.90;;;;;;5013310;28;20025;-50
2023/11/09 10:31:41;;;;;;;6.05;3.05;;;24.60;99.90;;;;;;5013162;28;20025;-50
2023/11/09 10:34:11;;;;;;;4.07;2.70;;;24.60;99.90;;;;;;5012047;28;20033;-50
2023/11/09 10:36:47;;;;;;;3.13;2.17;;;24.70;99.90;;;;;;5013202;28;20107;-49
2023/11/09 10:39:22;;;;;;;2.85;2.40;;;24.70;99.90;;;;;;5012537;28;20026;-50
2023/11/09 10:41:49;;;;;;;4.28;2.45;;;24.70;99.90;;;;;;5012803;28;20017;-49
2023/11/09 10:44:24;;;;;;;3.22;2.58;;;24.80;99.90;;;;;;5013105;28;20022;-50
2023/11/09 10:46:55;;;;;;;3.40;2.40;;;24.80;99.90;;;;;;5013126;28;20026;-50
2023/11/09 10:49:26;;;;;;;3.42;2.20;;;24.90;99.90;;;;;;5012966;28;20022;-50
2023/11/09 10:51:54;;;;;;;3.42;2.50;;;24.90;99.90;;;;;;5012782;28;20164;-49
2023/11/09 10:54:24;;;;;;;4.75;2.60;;;24.90;99.90;;;;;;5012813;28;20022;-50
2023/11/09 10:56:55;;;;;;;3.42;2.47;;;25.00;99.90;;;;;;5012714;28;20026;-50
2023/11/09 10:59:23;;;;;;;4.38;2.55;;;25.00;99.90;;;;;;5012812;28;20034;-49
2023/11/09 11:01:53;;;;;;;;;;;25.00;99.90;;;;;;5013132;28;20108;-50
2023/11/09 11:04:25;;;;;;;4.20;2.60;;;25.00;99.90;;;;;;5012815;28;19905;-49
2023/11/09 11:06:56;;;;;;;3.35;2.58;;;25.10;99.90;;;;;;5012651;28;20112;-49
2023/11/09 11:09:26;;;;;;;3.85;2.20;;;25.10;99.90;;;;;;5012506;28;20075;-50
2023/11/09 11:12:01;;;;;;;3.95;2.90;;;25.10;99.90;;;;;;5012648;28;20435;-50
2023/11/09 11:14:31;;;;;;;5.03;3.15;;;25.20;99.90;;;;;;5012533;28;20032;-49
2023/11/09 11:17:07;;;;;;;5.47;2.20;;;25.20;99.90;;;;;;5012652;28;20038;-49
2023/11/09 11:20:09;;;;;;;6.97;2.67;;;25.20;99.90;;;;;;5012277;28;20018;-49
2023/11/09 11:23:06;;;;;;;4.35;2.67;;;25.30;99.90;;;;;;5012688;28;20029;-49
2023/11/09 11:25:36;;;;;;;3.97;2.55;;;25.30;99.90;;;;;;5012523;28;20018;-49
2023/11/09 11:28:04;;;;;;;3.05;2.40;;;25.30;99.90;;;;;;5012078;28;20160;-50
2023/11/09 11:30:33;;;;;;;3.15;2.30;;;25.40;99.90;;;;;;5012162;28;20534;-50
2023/11/09 11:33:00;;;;;;;3.10;2.35;;;25.40;99.90;;;;;;5012369;28;20498;-50
2023/11/09 11:35:52;;;;;;;4.15;2.83;;;25.40;99.90;;;;;;5012279;28;20152;-49
2023/11/09 11:38:35;;;;;;;5.88;2.70;;;25.40;99.90;;;;;;5012175;28;20036;-50
2023/11/09 11:41:12;;;;;;;2.70;2.00;;;25.50;99.90;;;;;;5012106;28;20400;-50
2023/11/09 11:43:40;;;;;;;5.60;2.67;;;25.50;99.90;;;;;;5012330;28;20026;-50
2023/11/09 11:46:12;;;;;;;5.88;2.45;;;25.50;99.90;;;;;;5012350;28;20018;-50
2023/11/09 11:49:14;;;;;;;3.17;2.22;;;25.50;99.90;;;;;;5012489;28;20026;-50
2023/11/09 11:51:43;;;;;;;4.60;2.30;;;25.60;99.90;;;;;;5014037;28;20022;-50
2023/11/09 11:54:09;;;;;;;3.20;2.55;;;25.60;99.90;;;;;;5016323;28;20029;-50
2023/11/09 11:56:37;;;;;;;3.45;2.40;;;25.60;99.90;;;;;;5015954;28;20025;-50
2023/11/09 11:59:07;;;;;;;7.43;2.08;;;25.70;99.90;;;;;;5015968;28;20076;-50
2023/11/09 12:01:33;;;;;;;3.97;2.20;;;25.70;99.90;;;;;;5015640;28;20406;-50
2023/11/09 12:04:00;;;;;;;7.20;2.67;;;25.70;99.90;;;;;;5015987;28;20033;-49
2023/11/09 12:06:30;;;;;;;2.90;2.17;;;25.70;99.90;;;;;;5015963;28;20050;-49
2023/11/09 12:09:00;;;;;;;3.33;2.05;;;25.80;99.90;;;;;;5015821;28;20030;-49
2023/11/09 12:11:33;;;;;;;3.40;2.30;;;25.80;99.90;;;;;;5015705;28;20026;-50
2023/11/09 12:14:01;;;;;;;3.80;2.20;;;25.80;99.90;;;;;;4999133;28;20022;-49
2023/11/09 12:16:29;;;;;;;3.13;1.90;;;25.80;99.90;;;;;;5015660;28;20022;-49
2023/11/09 12:19:00;;;;;;;3.53;2.28;;;25.90;99.90;;;;;;5015616;28;20026;-50
2023/11/09 12:21:29;;;;;;;3.65;2.20;;;25.90;99.90;;;;;;5014242;28;20115;-49
2023/11/09 12:23:57;;;;;;;3.50;2.22;;;25.90;99.90;;;;;;5015636;28;20390;-50
2023/11/09 12:26:28;;;;;;;;;;;25.90;99.90;;;;;;5016111;28;20054;-50
2023/11/09 12:28:54;;;;;;;3.80;2.03;;;25.90;99.90;;;;;;5015701;28;19905;-50
2023/11/09 12:31:25;;;;;;;3.45;2.17;;;26.00;99.90;;;;;;5015505;28;20034;-50
2023/11/09 12:34:03;;;;;;;2.42;2.03;;;26.00;99.90;;;;;;5015516;28;20028;-50
2023/11/09 12:36:29;;;;;;;3.55;1.90;;;26.00;99.90;;;;;;5015399;28;20030;-50
2023/11/09 12:38:55;;;;;;;4.55;2.40;;;26.00;99.90;;;;;;5014199;28;20080;-49
2023/11/09 12:41:25;;;;;;;2.78;1.92;;;26.00;99.90;;;;;;5015420;28;20093;-51
2023/11/09 12:43:51;;;;;;;4.00;2.08;;;26.10;99.90;;;;;;5015307;28;20030;-49
2023/11/09 12:46:22;;;;;;;2.13;1.85;;;26.10;99.90;;;;;;5015312;28;20022;-50
2023/11/09 12:48:48;;;;;;;4.10;2.15;;;26.10;99.90;;;;;;5015116;28;20045;-49
2023/11/09 12:51:22;;;;;;;4.95;2.05;;;26.10;99.90;;;;;;5015304;28;20459;-50
2023/11/09 12:53:52;;;;;;;3.45;1.80;;;26.10;99.90;;;;;;5015122;28;20034;-50
2023/11/09 12:56:21;;;;;;;2.38;1.73;;;26.10;99.90;;;;;;5014977;28;20033;-50
2023/11/09 12:58:53;;;;;;;4.13;2.00;;;26.20;99.90;;;;;;5014952;28;20466;-49